Aviation Digital Data Service (ADDS)

Output produced by TAFs form (1653 UTC 28 November 2014)
found at http://aviationweather.gov/adds/tafs/
 
KGJT 281120Z 2812/2912 10004KT P6SM BKN200 
     FM282000 31004KT P6SM SCT250 
     FM290200 07005KT P6SM SKC